sensor_id;sensor_type;location;lat;lon;timestamp;P1;durP1;ratioP1;P2;durP2;ratioP2
26977;SDS011;56314;48.088;11.642;2022-12-18T00:01:52;72.68;;;27.77;;
26977;SDS011;56314;48.088;11.642;2022-12-18T00:04:22;69.10;;;26.95;;
26977;SDS011;56314;48.088;11.642;2022-12-18T00:06:49;75.53;;;26.38;;
26977;SDS011;56314;48.088;11.642;2022-12-18T00:09:15;60.65;;;26.52;;
26977;SDS011;56314;48.088;11.642;2022-12-18T00:11:41;75.65;;;27.85;;
26977;SDS011;56314;48.088;11.642;2022-12-18T00:14:06;69.10;;;27.10;;
26977;SDS011;56314;48.088;11.642;2022-12-18T00:16:32;68.55;;;25.75;;
26977;SDS011;56314;48.088;11.642;2022-12-18T00:19:00;69.13;;;26.15;;
26977;SDS011;56314;48.088;11.642;2022-12-18T00:21:27;66.22;;;25.45;;
26977;SDS011;56314;48.088;11.642;2022-12-18T00:23:53;65.20;;;23.35;;
26977;SDS011;56314;48.088;11.642;2022-12-18T00:26:22;71.95;;;26.33;;
26977;SDS011;56314;48.088;11.642;2022-12-18T00:28:50;72.47;;;25.92;;
26977;SDS011;56314;48.088;11.642;2022-12-18T00:31:17;63.03;;;24.45;;
26977;SDS011;56314;48.088;11.642;2022-12-18T00:33:45;64.85;;;24.88;;
26977;SDS011;56314;48.088;11.642;2022-12-18T00:36:21;70.70;;;25.52;;
26977;SDS011;56314;48.088;11.642;2022-12-18T00:38:48;72.72;;;26.95;;
26977;SDS011;56314;48.088;11.642;2022-12-18T00:41:14;72.53;;;26.35;;
26977;SDS011;56314;48.088;11.642;2022-12-18T00:44:00;66.28;;;25.83;;
26977;SDS011;56314;48.088;11.642;2022-12-18T00:46:26;68.22;;;24.15;;
26977;SDS011;56314;48.088;11.642;2022-12-18T00:48:52;70.10;;;25.73;;
26977;SDS011;56314;48.088;11.642;2022-12-18T00:51:17;69.70;;;25.13;;
26977;SDS011;56314;48.088;11.642;2022-12-18T00:53:42;71.40;;;25.33;;
26977;SDS011;56314;48.088;11.642;2022-12-18T00:56:08;64.70;;;25.60;;
26977;SDS011;56314;48.088;11.642;2022-12-18T00:58:36;75.60;;;24.55;;
26977;SDS011;56314;48.088;11.642;2022-12-18T01:01:03;61.85;;;25.42;;
26977;SDS011;56314;48.088;11.642;2022-12-18T01:03:29;70.63;;;25.25;;
26977;SDS011;56314;48.088;11.642;2022-12-18T01:05:55;75.15;;;25.02;;
26977;SDS011;56314;48.088;11.642;2022-12-18T01:08:21;72.32;;;24.88;;
26977;SDS011;56314;48.088;11.642;2022-12-18T01:10:46;67.70;;;25.65;;
26977;SDS011;56314;48.088;11.642;2022-12-18T01:13:12;65.82;;;25.15;;
26977;SDS011;56314;48.088;11.642;2022-12-18T01:15:37;70.22;;;25.65;;
26977;SDS011;56314;48.088;11.642;2022-12-18T01:18:06;70.22;;;27.17;;
26977;SDS011;56314;48.088;11.642;2022-12-18T01:20:31;71.93;;;25.88;;
26977;SDS011;56314;48.088;11.642;2022-12-18T01:22:57;72.53;;;26.15;;
26977;SDS011;56314;48.088;11.642;2022-12-18T01:25:22;68.55;;;25.65;;
26977;SDS011;56314;48.088;11.642;2022-12-18T01:27:47;64.32;;;26.13;;
26977;SDS011;56314;48.088;11.642;2022-12-18T01:30:13;69.78;;;26.17;;
26977;SDS011;56314;48.088;11.642;2022-12-18T01:32:38;66.97;;;25.80;;
26977;SDS011;56314;48.088;11.642;2022-12-18T01:35:04;70.57;;;26.00;;
26977;SDS011;56314;48.088;11.642;2022-12-18T01:37:30;76.13;;;26.83;;
26977;SDS011;56314;48.088;11.642;2022-12-18T01:39:55;67.15;;;27.15;;
26977;SDS011;56314;48.088;11.642;2022-12-18T01:42:21;71.97;;;28.45;;
26977;SDS011;56314;48.088;11.642;2022-12-18T01:47:41;75.78;;;28.08;;
26977;SDS011;56314;48.088;11.642;2022-12-18T01:52:39;76.32;;;28.73;;
26977;SDS011;56314;48.088;11.642;2022-12-18T01:55:08;83.28;;;29.65;;
26977;SDS011;56314;48.088;11.642;2022-12-18T01:57:34;81.25;;;30.10;;
26977;SDS011;56314;48.088;11.642;2022-12-18T02:00:03;76.18;;;28.95;;
26977;SDS011;56314;48.088;11.642;2022-12-18T02:02:31;72.70;;;27.70;;
26977;SDS011;56314;48.088;11.642;2022-12-18T02:04:57;78.57;;;29.05;;
26977;SDS011;56314;48.088;11.642;2022-12-18T02:10:10;78.55;;;28.95;;
26977;SDS011;56314;48.088;11.642;2022-12-18T02:15:39;75.18;;;28.70;;
26977;SDS011;56314;48.088;11.642;2022-12-18T02:18:19;77.65;;;28.92;;
26977;SDS011;56314;48.088;11.642;2022-12-18T02:20:55;82.78;;;30.13;;
26977;SDS011;56314;48.088;11.642;2022-12-18T02:26:28;77.20;;;28.67;;
26977;SDS011;56314;48.088;11.642;2022-12-18T02:29:00;82.47;;;30.20;;
26977;SDS011;56314;48.088;11.642;2022-12-18T02:31:32;82.55;;;29.45;;
26977;SDS011;56314;48.088;11.642;2022-12-18T02:34:02;80.30;;;28.73;;
26977;SDS011;56314;48.088;11.642;2022-12-18T02:36:29;89.82;;;31.50;;
26977;SDS011;56314;48.088;11.642;2022-12-18T02:38:57;80.93;;;30.90;;
26977;SDS011;56314;48.088;11.642;2022-12-18T02:41:24;74.95;;;28.33;;
26977;SDS011;56314;48.088;11.642;2022-12-18T02:44:00;78.82;;;29.33;;
26977;SDS011;56314;48.088;11.642;2022-12-18T02:46:32;76.43;;;29.30;;
26977;SDS011;56314;48.088;11.642;2022-12-18T02:49:09;82.45;;;30.17;;
26977;SDS011;56314;48.088;11.642;2022-12-18T02:56:52;80.22;;;28.10;;
26977;SDS011;56314;48.088;11.642;2022-12-18T02:59:23;79.43;;;30.02;;
26977;SDS011;56314;48.088;11.642;2022-12-18T03:02:05;78.43;;;28.73;;
26977;SDS011;56314;48.088;11.642;2022-12-18T03:04:43;82.82;;;31.67;;
26977;SDS011;56314;48.088;11.642;2022-12-18T03:07:16;80.45;;;29.35;;
26977;SDS011;56314;48.088;11.642;2022-12-18T03:09:46;81.20;;;30.25;;
26977;SDS011;56314;48.088;11.642;2022-12-18T03:12:16;81.10;;;28.98;;
26977;SDS011;56314;48.088;11.642;2022-12-18T03:14:49;82.70;;;31.05;;
26977;SDS011;56314;48.088;11.642;2022-12-18T03:17:55;70.90;;;27.45;;
26977;SDS011;56314;48.088;11.642;2022-12-18T03:20:25;93.03;;;31.80;;
26977;SDS011;56314;48.088;11.642;2022-12-18T03:22:56;79.60;;;31.42;;
26977;SDS011;56314;48.088;11.642;2022-12-18T03:25:27;80.93;;;29.43;;
26977;SDS011;56314;48.088;11.642;2022-12-18T03:27:54;84.82;;;30.95;;
26977;SDS011;56314;48.088;11.642;2022-12-18T03:30:22;90.70;;;31.88;;
26977;SDS011;56314;48.088;11.642;2022-12-18T03:33:01;77.90;;;30.58;;
26977;SDS011;56314;48.088;11.642;2022-12-18T03:35:35;86.78;;;31.15;;
26977;SDS011;56314;48.088;11.642;2022-12-18T03:38:04;83.90;;;30.92;;
26977;SDS011;56314;48.088;11.642;2022-12-18T03:40:32;82.85;;;29.45;;
26977;SDS011;56314;48.088;11.642;2022-12-18T03:43:20;74.43;;;28.42;;
26977;SDS011;56314;48.088;11.642;2022-12-18T03:46:02;77.15;;;30.10;;
26977;SDS011;56314;48.088;11.642;2022-12-18T03:48:49;81.95;;;29.60;;
26977;SDS011;56314;48.088;11.642;2022-12-18T03:51:28;69.10;;;29.23;;
26977;SDS011;56314;48.088;11.642;2022-12-18T03:54:03;82.32;;;29.55;;
26977;SDS011;56314;48.088;11.642;2022-12-18T03:56:33;78.97;;;29.48;;
26977;SDS011;56314;48.088;11.642;2022-12-18T03:59:07;75.70;;;29.38;;
26977;SDS011;56314;48.088;11.642;2022-12-18T04:01:36;77.43;;;29.85;;
26977;SDS011;56314;48.088;11.642;2022-12-18T04:04:05;76.32;;;29.58;;
26977;SDS011;56314;48.088;11.642;2022-12-18T04:06:33;73.43;;;28.40;;
26977;SDS011;56314;48.088;11.642;2022-12-18T04:09:00;82.50;;;30.70;;
26977;SDS011;56314;48.088;11.642;2022-12-18T04:11:26;70.97;;;28.25;;
26977;SDS011;56314;48.088;11.642;2022-12-18T04:13:54;71.95;;;29.15;;
26977;SDS011;56314;48.088;11.642;2022-12-18T04:16:21;70.72;;;27.30;;
26977;SDS011;56314;48.088;11.642;2022-12-18T04:18:46;71.63;;;27.63;;
26977;SDS011;56314;48.088;11.642;2022-12-18T04:21:12;67.05;;;27.50;;
26977;SDS011;56314;48.088;11.642;2022-12-18T04:23:37;71.43;;;27.30;;
26977;SDS011;56314;48.088;11.642;2022-12-18T04:26:02;75.57;;;27.00;;
26977;SDS011;56314;48.088;11.642;2022-12-18T04:28:28;73.95;;;28.15;;
26977;SDS011;56314;48.088;11.642;2022-12-18T04:30:53;68.75;;;26.45;;
26977;SDS011;56314;48.088;11.642;2022-12-18T04:33:18;69.60;;;25.50;;
26977;SDS011;56314;48.088;11.642;2022-12-18T04:35:44;59.58;;;25.27;;
26977;SDS011;56314;48.088;11.642;2022-12-18T04:38:09;64.00;;;23.77;;
26977;SDS011;56314;48.088;11.642;2022-12-18T04:40:35;67.97;;;24.70;;
26977;SDS011;56314;48.088;11.642;2022-12-18T04:43:02;70.80;;;26.02;;
26977;SDS011;56314;48.088;11.642;2022-12-18T04:45:28;74.40;;;27.10;;
26977;SDS011;56314;48.088;11.642;2022-12-18T04:47:56;68.20;;;25.55;;
26977;SDS011;56314;48.088;11.642;2022-12-18T04:50:25;58.40;;;24.23;;
26977;SDS011;56314;48.088;11.642;2022-12-18T04:52:50;66.13;;;25.80;;
26977;SDS011;56314;48.088;11.642;2022-12-18T04:55:16;63.58;;;24.75;;
26977;SDS011;56314;48.088;11.642;2022-12-18T04:57:41;63.97;;;24.80;;
26977;SDS011;56314;48.088;11.642;2022-12-18T05:00:06;61.13;;;23.92;;
26977;SDS011;56314;48.088;11.642;2022-12-18T05:02:32;66.35;;;24.70;;
26977;SDS011;56314;48.088;11.642;2022-12-18T05:04:58;55.72;;;25.70;;
26977;SDS011;56314;48.088;11.642;2022-12-18T05:07:23;65.82;;;26.38;;
26977;SDS011;56314;48.088;11.642;2022-12-18T05:09:48;61.75;;;23.73;;
26977;SDS011;56314;48.088;11.642;2022-12-18T05:12:14;62.25;;;25.60;;
26977;SDS011;56314;48.088;11.642;2022-12-18T05:14:39;62.70;;;25.77;;
26977;SDS011;56314;48.088;11.642;2022-12-18T05:17:04;63.13;;;26.42;;
26977;SDS011;56314;48.088;11.642;2022-12-18T05:19:30;64.70;;;25.13;;
26977;SDS011;56314;48.088;11.642;2022-12-18T05:21:55;63.83;;;24.95;;
26977;SDS011;56314;48.088;11.642;2022-12-18T05:24:20;56.10;;;23.02;;
26977;SDS011;56314;48.088;11.642;2022-12-18T05:26:45;56.17;;;22.17;;
26977;SDS011;56314;48.088;11.642;2022-12-18T05:29:11;61.75;;;22.98;;
26977;SDS011;56314;48.088;11.642;2022-12-18T05:31:37;66.47;;;24.65;;
26977;SDS011;56314;48.088;11.642;2022-12-18T05:34:03;64.13;;;24.17;;
26977;SDS011;56314;48.088;11.642;2022-12-18T05:36:29;58.03;;;23.02;;
26977;SDS011;56314;48.088;11.642;2022-12-18T05:38:54;61.40;;;25.17;;
26977;SDS011;56314;48.088;11.642;2022-12-18T05:41:19;67.47;;;26.55;;
26977;SDS011;56314;48.088;11.642;2022-12-18T05:43:45;62.80;;;23.23;;
26977;SDS011;56314;48.088;11.642;2022-12-18T05:46:14;62.28;;;24.17;;
26977;SDS011;56314;48.088;11.642;2022-12-18T05:48:41;65.63;;;25.23;;
26977;SDS011;56314;48.088;11.642;2022-12-18T05:51:11;62.20;;;25.75;;
26977;SDS011;56314;48.088;11.642;2022-12-18T05:53:41;58.67;;;23.58;;
26977;SDS011;56314;48.088;11.642;2022-12-18T05:56:08;60.80;;;23.25;;
26977;SDS011;56314;48.088;11.642;2022-12-18T05:58:36;61.83;;;24.20;;
26977;SDS011;56314;48.088;11.642;2022-12-18T06:03:35;61.33;;;24.38;;
26977;SDS011;56314;48.088;11.642;2022-12-18T06:06:01;64.45;;;24.48;;
26977;SDS011;56314;48.088;11.642;2022-12-18T06:08:26;62.60;;;23.83;;
26977;SDS011;56314;48.088;11.642;2022-12-18T06:10:52;58.97;;;23.88;;
26977;SDS011;56314;48.088;11.642;2022-12-18T06:13:17;61.50;;;24.23;;
26977;SDS011;56314;48.088;11.642;2022-12-18T06:15:43;59.03;;;24.05;;
26977;SDS011;56314;48.088;11.642;2022-12-18T06:18:08;59.83;;;24.60;;
26977;SDS011;56314;48.088;11.642;2022-12-18T06:20:34;58.88;;;23.40;;
26977;SDS011;56314;48.088;11.642;2022-12-18T06:23:01;58.58;;;22.50;;
26977;SDS011;56314;48.088;11.642;2022-12-18T06:25:26;55.50;;;22.35;;
26977;SDS011;56314;48.088;11.642;2022-12-18T06:27:52;59.45;;;24.38;;
26977;SDS011;56314;48.088;11.642;2022-12-18T06:30:17;60.55;;;23.13;;
26977;SDS011;56314;48.088;11.642;2022-12-18T06:32:42;72.10;;;25.20;;
26977;SDS011;56314;48.088;11.642;2022-12-18T06:35:08;63.83;;;24.80;;
26977;SDS011;56314;48.088;11.642;2022-12-18T06:37:33;64.43;;;24.27;;
26977;SDS011;56314;48.088;11.642;2022-12-18T06:39:59;63.90;;;24.48;;
26977;SDS011;56314;48.088;11.642;2022-12-18T06:42:25;58.40;;;24.30;;
26977;SDS011;56314;48.088;11.642;2022-12-18T06:44:51;66.68;;;26.02;;
26977;SDS011;56314;48.088;11.642;2022-12-18T06:47:17;57.67;;;23.02;;
26977;SDS011;56314;48.088;11.642;2022-12-18T06:49:43;58.97;;;22.90;;
26977;SDS011;56314;48.088;11.642;2022-12-18T06:52:08;60.42;;;23.42;;
26977;SDS011;56314;48.088;11.642;2022-12-18T06:54:33;68.97;;;24.52;;
26977;SDS011;56314;48.088;11.642;2022-12-18T06:56:59;61.20;;;24.05;;
26977;SDS011;56314;48.088;11.642;2022-12-18T06:59:24;59.00;;;23.45;;
26977;SDS011;56314;48.088;11.642;2022-12-18T07:01:50;59.20;;;23.45;;
26977;SDS011;56314;48.088;11.642;2022-12-18T07:04:15;64.70;;;25.00;;
26977;SDS011;56314;48.088;11.642;2022-12-18T07:06:41;52.83;;;22.35;;
26977;SDS011;56314;48.088;11.642;2022-12-18T07:09:06;61.92;;;23.38;;
26977;SDS011;56314;48.088;11.642;2022-12-18T07:11:32;67.43;;;24.83;;
26977;SDS011;56314;48.088;11.642;2022-12-18T07:14:01;64.75;;;23.83;;
26977;SDS011;56314;48.088;11.642;2022-12-18T07:16:26;57.28;;;23.10;;
26977;SDS011;56314;48.088;11.642;2022-12-18T07:18:55;58.65;;;23.60;;
26977;SDS011;56314;48.088;11.642;2022-12-18T07:21:21;59.35;;;23.23;;
26977;SDS011;56314;48.088;11.642;2022-12-18T07:23:48;53.30;;;22.35;;
26977;SDS011;56314;48.088;11.642;2022-12-18T07:26:13;54.30;;;22.40;;
26977;SDS011;56314;48.088;11.642;2022-12-18T07:28:40;57.10;;;22.35;;
26977;SDS011;56314;48.088;11.642;2022-12-18T07:31:07;56.42;;;22.23;;
26977;SDS011;56314;48.088;11.642;2022-12-18T07:33:35;55.67;;;23.10;;
26977;SDS011;56314;48.088;11.642;2022-12-18T07:36:01;55.83;;;22.65;;
26977;SDS011;56314;48.088;11.642;2022-12-18T07:38:30;62.50;;;23.45;;
26977;SDS011;56314;48.088;11.642;2022-12-18T07:41:06;61.30;;;22.95;;
26977;SDS011;56314;48.088;11.642;2022-12-18T07:43:36;64.32;;;23.65;;
26977;SDS011;56314;48.088;11.642;2022-12-18T07:46:01;59.45;;;22.50;;
26977;SDS011;56314;48.088;11.642;2022-12-18T07:48:28;58.25;;;24.45;;
26977;SDS011;56314;48.088;11.642;2022-12-18T07:50:57;51.88;;;22.17;;
26977;SDS011;56314;48.088;11.642;2022-12-18T07:53:23;63.97;;;23.58;;
26977;SDS011;56314;48.088;11.642;2022-12-18T07:55:49;59.60;;;22.45;;
26977;SDS011;56314;48.088;11.642;2022-12-18T07:58:14;57.80;;;21.33;;
26977;SDS011;56314;48.088;11.642;2022-12-18T08:00:39;53.75;;;21.67;;
26977;SDS011;56314;48.088;11.642;2022-12-18T08:03:05;50.55;;;21.17;;
26977;SDS011;56314;48.088;11.642;2022-12-18T08:05:30;52.80;;;20.85;;
26977;SDS011;56314;48.088;11.642;2022-12-18T08:07:55;52.38;;;20.63;;
26977;SDS011;56314;48.088;11.642;2022-12-18T08:10:21;51.30;;;21.77;;
26977;SDS011;56314;48.088;11.642;2022-12-18T08:12:50;49.28;;;19.27;;
26977;SDS011;56314;48.088;11.642;2022-12-18T08:15:16;54.97;;;20.83;;
26977;SDS011;56314;48.088;11.642;2022-12-18T08:17:42;56.63;;;21.40;;
26977;SDS011;56314;48.088;11.642;2022-12-18T08:20:07;51.78;;;21.35;;
26977;SDS011;56314;48.088;11.642;2022-12-18T08:22:34;50.78;;;20.98;;
26977;SDS011;56314;48.088;11.642;2022-12-18T08:25:03;50.83;;;21.33;;
26977;SDS011;56314;48.088;11.642;2022-12-18T08:27:29;54.85;;;21.20;;
26977;SDS011;56314;48.088;11.642;2022-12-18T08:29:55;53.45;;;19.63;;
26977;SDS011;56314;48.088;11.642;2022-12-18T08:32:20;53.58;;;21.38;;
26977;SDS011;56314;48.088;11.642;2022-12-18T08:34:46;57.97;;;21.05;;
26977;SDS011;56314;48.088;11.642;2022-12-18T08:37:11;51.78;;;21.23;;
26977;SDS011;56314;48.088;11.642;2022-12-18T08:39:36;57.10;;;20.92;;
26977;SDS011;56314;48.088;11.642;2022-12-18T08:42:02;45.83;;;20.13;;
26977;SDS011;56314;48.088;11.642;2022-12-18T08:44:46;38.88;;;15.85;;
26977;SDS011;56314;48.088;11.642;2022-12-18T08:47:11;55.58;;;20.85;;
26977;SDS011;56314;48.088;11.642;2022-12-18T08:49:36;52.03;;;19.42;;
26977;SDS011;56314;48.088;11.642;2022-12-18T08:52:02;50.38;;;21.50;;
26977;SDS011;56314;48.088;11.642;2022-12-18T08:54:29;52.22;;;20.10;;
26977;SDS011;56314;48.088;11.642;2022-12-18T08:56:54;53.25;;;20.05;;
26977;SDS011;56314;48.088;11.642;2022-12-18T08:59:19;53.28;;;21.15;;
26977;SDS011;56314;48.088;11.642;2022-12-18T09:01:45;53.53;;;20.05;;
26977;SDS011;56314;48.088;11.642;2022-12-18T09:04:11;50.60;;;21.40;;
26977;SDS011;56314;48.088;11.642;2022-12-18T09:06:37;50.88;;;20.58;;
26977;SDS011;56314;48.088;11.642;2022-12-18T09:09:03;49.22;;;19.45;;
26977;SDS011;56314;48.088;11.642;2022-12-18T09:11:29;52.65;;;20.88;;
26977;SDS011;56314;48.088;11.642;2022-12-18T09:13:56;53.35;;;20.25;;
26977;SDS011;56314;48.088;11.642;2022-12-18T09:16:22;48.30;;;19.95;;
26977;SDS011;56314;48.088;11.642;2022-12-18T09:18:48;50.22;;;20.52;;
26977;SDS011;56314;48.088;11.642;2022-12-18T09:21:17;48.33;;;19.08;;
26977;SDS011;56314;48.088;11.642;2022-12-18T09:23:48;46.10;;;19.38;;
26977;SDS011;56314;48.088;11.642;2022-12-18T09:26:15;54.35;;;21.25;;
26977;SDS011;56314;48.088;11.642;2022-12-18T09:28:40;49.92;;;20.10;;
26977;SDS011;56314;48.088;11.642;2022-12-18T09:31:06;43.22;;;19.63;;
26977;SDS011;56314;48.088;11.642;2022-12-18T09:33:33;50.15;;;19.33;;
26977;SDS011;56314;48.088;11.642;2022-12-18T09:36:06;53.92;;;20.05;;
26977;SDS011;56314;48.088;11.642;2022-12-18T09:38:33;52.38;;;21.67;;
26977;SDS011;56314;48.088;11.642;2022-12-18T09:41:00;47.40;;;19.95;;
26977;SDS011;56314;48.088;11.642;2022-12-18T09:43:43;47.17;;;20.05;;
26977;SDS011;56314;48.088;11.642;2022-12-18T09:46:17;46.33;;;19.15;;
26977;SDS011;56314;48.088;11.642;2022-12-18T09:48:54;50.03;;;20.17;;
26977;SDS011;56314;48.088;11.642;2022-12-18T09:51:30;49.22;;;19.98;;
26977;SDS011;56314;48.088;11.642;2022-12-18T09:54:21;43.00;;;18.27;;
26977;SDS011;56314;48.088;11.642;2022-12-18T09:56:51;49.53;;;18.60;;
26977;SDS011;56314;48.088;11.642;2022-12-18T09:59:34;46.78;;;19.67;;
26977;SDS011;56314;48.088;11.642;2022-12-18T10:05:07;50.78;;;18.45;;
26977;SDS011;56314;48.088;11.642;2022-12-18T10:07:42;42.63;;;17.60;;
26977;SDS011;56314;48.088;11.642;2022-12-18T10:13:02;45.65;;;19.10;;
26977;SDS011;56314;48.088;11.642;2022-12-18T10:15:45;40.97;;;17.70;;
26977;SDS011;56314;48.088;11.642;2022-12-18T10:21:02;43.20;;;18.70;;
26977;SDS011;56314;48.088;11.642;2022-12-18T10:26:02;43.08;;;18.92;;
26977;SDS011;56314;48.088;11.642;2022-12-18T10:28:30;44.47;;;18.83;;
26977;SDS011;56314;48.088;11.642;2022-12-18T10:30:58;48.17;;;19.35;;
26977;SDS011;56314;48.088;11.642;2022-12-18T10:33:24;44.28;;;17.83;;
26977;SDS011;56314;48.088;11.642;2022-12-18T10:35:53;45.35;;;18.77;;
26977;SDS011;56314;48.088;11.642;2022-12-18T10:43:21;40.33;;;19.10;;
26977;SDS011;56314;48.088;11.642;2022-12-18T10:48:30;47.60;;;19.38;;
26977;SDS011;56314;48.088;11.642;2022-12-18T10:50:58;42.67;;;18.50;;
26977;SDS011;56314;48.088;11.642;2022-12-18T10:53:28;42.75;;;18.67;;
26977;SDS011;56314;48.088;11.642;2022-12-18T10:55:56;41.85;;;17.73;;
26977;SDS011;56314;48.088;11.642;2022-12-18T10:58:29;45.22;;;17.67;;
26977;SDS011;56314;48.088;11.642;2022-12-18T11:01:10;47.30;;;19.70;;
26977;SDS011;56314;48.088;11.642;2022-12-18T11:06:12;40.92;;;17.17;;
26977;SDS011;56314;48.088;11.642;2022-12-18T11:08:38;48.80;;;19.45;;
26977;SDS011;56314;48.088;11.642;2022-12-18T11:11:07;47.40;;;18.73;;
26977;SDS011;56314;48.088;11.642;2022-12-18T11:13:48;40.75;;;17.05;;
26977;SDS011;56314;48.088;11.642;2022-12-18T11:16:42;43.92;;;19.00;;
26977;SDS011;56314;48.088;11.642;2022-12-18T11:19:55;43.85;;;17.95;;
26977;SDS011;56314;48.088;11.642;2022-12-18T11:21:59;42.80;;;18.27;;
26977;SDS011;56314;48.088;11.642;2022-12-18T11:27:06;40.95;;;17.33;;
26977;SDS011;56314;48.088;11.642;2022-12-18T11:29:43;37.10;;;16.45;;
26977;SDS011;56314;48.088;11.642;2022-12-18T11:34:39;35.28;;;15.90;;
26977;SDS011;56314;48.088;11.642;2022-12-18T11:37:09;42.53;;;16.90;;
26977;SDS011;56314;48.088;11.642;2022-12-18T11:39:38;38.08;;;17.23;;
26977;SDS011;56314;48.088;11.642;2022-12-18T11:50:31;38.83;;;16.95;;
26977;SDS011;56314;48.088;11.642;2022-12-18T11:53:09;41.58;;;16.35;;
26977;SDS011;56314;48.088;11.642;2022-12-18T12:04:08;40.13;;;16.42;;
26977;SDS011;56314;48.088;11.642;2022-12-18T12:18:01;41.35;;;16.48;;
26977;SDS011;56314;48.088;11.642;2022-12-18T12:26:45;38.47;;;16.88;;
26977;SDS011;56314;48.088;11.642;2022-12-18T12:29:24;40.88;;;17.92;;
26977;SDS011;56314;48.088;11.642;2022-12-18T12:34:49;38.67;;;16.40;;
26977;SDS011;56314;48.088;11.642;2022-12-18T12:39:44;43.25;;;17.90;;
26977;SDS011;56314;48.088;11.642;2022-12-18T12:42:34;38.20;;;17.02;;
26977;SDS011;56314;48.088;11.642;2022-12-18T12:45:33;39.65;;;17.02;;
26977;SDS011;56314;48.088;11.642;2022-12-18T12:48:05;41.13;;;16.92;;
26977;SDS011;56314;48.088;11.642;2022-12-18T12:50:38;42.13;;;17.08;;
26977;SDS011;56314;48.088;11.642;2022-12-18T12:53:06;36.83;;;15.27;;
26977;SDS011;56314;48.088;11.642;2022-12-18T12:55:36;43.03;;;18.38;;
26977;SDS011;56314;48.088;11.642;2022-12-18T12:58:12;45.95;;;17.45;;
26977;SDS011;56314;48.088;11.642;2022-12-18T13:01:14;44.47;;;18.85;;
26977;SDS011;56314;48.088;11.642;2022-12-18T13:03:54;46.72;;;17.88;;
26977;SDS011;56314;48.088;11.642;2022-12-18T13:09:15;55.30;;;21.67;;
26977;SDS011;56314;48.088;11.642;2022-12-18T13:14:35;42.28;;;16.67;;
26977;SDS011;56314;48.088;11.642;2022-12-18T13:17:26;46.00;;;19.05;;
26977;SDS011;56314;48.088;11.642;2022-12-18T13:20:07;45.65;;;18.58;;
26977;SDS011;56314;48.088;11.642;2022-12-18T13:22:36;47.55;;;18.55;;
26977;SDS011;56314;48.088;11.642;2022-12-18T13:28:06;49.70;;;19.02;;
26977;SDS011;56314;48.088;11.642;2022-12-18T13:35:51;42.80;;;17.60;;
26977;SDS011;56314;48.088;11.642;2022-12-18T13:40:56;42.95;;;17.70;;
26977;SDS011;56314;48.088;11.642;2022-12-18T13:48:31;45.20;;;18.85;;
26977;SDS011;56314;48.088;11.642;2022-12-18T13:54:06;43.90;;;17.38;;
26977;SDS011;56314;48.088;11.642;2022-12-18T13:56:26;38.85;;;17.35;;
26977;SDS011;56314;48.088;11.642;2022-12-18T13:59:08;43.75;;;17.30;;
26977;SDS011;56314;48.088;11.642;2022-12-18T14:01:51;42.70;;;17.88;;
26977;SDS011;56314;48.088;11.642;2022-12-18T14:04:23;41.30;;;18.05;;
26977;SDS011;56314;48.088;11.642;2022-12-18T14:06:55;42.75;;;17.30;;
26977;SDS011;56314;48.088;11.642;2022-12-18T14:09:24;47.03;;;17.95;;
26977;SDS011;56314;48.088;11.642;2022-12-18T14:11:52;43.97;;;18.25;;
26977;SDS011;56314;48.088;11.642;2022-12-18T14:14:41;42.35;;;18.15;;
26977;SDS011;56314;48.088;11.642;2022-12-18T14:17:12;39.10;;;17.33;;
26977;SDS011;56314;48.088;11.642;2022-12-18T14:19:41;47.05;;;19.63;;
26977;SDS011;56314;48.088;11.642;2022-12-18T14:22:12;52.40;;;17.95;;
26977;SDS011;56314;48.088;11.642;2022-12-18T14:24:41;47.08;;;19.27;;
26977;SDS011;56314;48.088;11.642;2022-12-18T14:27:13;49.08;;;18.92;;
26977;SDS011;56314;48.088;11.642;2022-12-18T14:29:47;44.15;;;18.10;;
26977;SDS011;56314;48.088;11.642;2022-12-18T14:32:19;47.92;;;20.33;;
26977;SDS011;56314;48.088;11.642;2022-12-18T14:34:46;47.08;;;19.92;;
26977;SDS011;56314;48.088;11.642;2022-12-18T14:37:12;48.10;;;18.70;;
26977;SDS011;56314;48.088;11.642;2022-12-18T14:39:39;43.55;;;18.90;;
26977;SDS011;56314;48.088;11.642;2022-12-18T14:42:05;53.90;;;20.30;;
26977;SDS011;56314;48.088;11.642;2022-12-18T14:44:30;44.72;;;19.33;;
26977;SDS011;56314;48.088;11.642;2022-12-18T14:46:56;39.58;;;17.38;;
26977;SDS011;56314;48.088;11.642;2022-12-18T14:51:54;45.88;;;19.08;;
26977;SDS011;56314;48.088;11.642;2022-12-18T14:54:25;52.53;;;20.35;;
26977;SDS011;56314;48.088;11.642;2022-12-18T14:57:03;46.15;;;19.08;;
26977;SDS011;56314;48.088;11.642;2022-12-18T14:59:49;43.72;;;19.05;;
26977;SDS011;56314;48.088;11.642;2022-12-18T15:04:58;52.40;;;18.92;;
26977;SDS011;56314;48.088;11.642;2022-12-18T15:07:26;45.40;;;19.77;;
26977;SDS011;56314;48.088;11.642;2022-12-18T15:10:10;50.00;;;20.33;;
26977;SDS011;56314;48.088;11.642;2022-12-18T15:12:46;43.60;;;18.20;;
26977;SDS011;56314;48.088;11.642;2022-12-18T15:20:33;43.72;;;18.25;;
26977;SDS011;56314;48.088;11.642;2022-12-18T15:36:17;50.38;;;19.27;;
26977;SDS011;56314;48.088;11.642;2022-12-18T15:38:52;50.40;;;19.88;;
26977;SDS011;56314;48.088;11.642;2022-12-18T15:41:19;50.25;;;20.50;;
26977;SDS011;56314;48.088;11.642;2022-12-18T15:43:46;54.55;;;20.65;;
26977;SDS011;56314;48.088;11.642;2022-12-18T15:46:21;49.20;;;20.35;;
26977;SDS011;56314;48.088;11.642;2022-12-18T15:48:49;53.60;;;21.48;;
26977;SDS011;56314;48.088;11.642;2022-12-18T15:51:20;50.78;;;20.95;;
26977;SDS011;56314;48.088;11.642;2022-12-18T15:53:48;57.83;;;22.38;;
26977;SDS011;56314;48.088;11.642;2022-12-18T15:56:15;60.33;;;22.70;;
26977;SDS011;56314;48.088;11.642;2022-12-18T16:01:26;56.08;;;20.92;;
26977;SDS011;56314;48.088;11.642;2022-12-18T16:03:53;50.58;;;20.67;;
26977;SDS011;56314;48.088;11.642;2022-12-18T16:06:19;51.58;;;20.90;;
26977;SDS011;56314;48.088;11.642;2022-12-18T16:08:45;51.45;;;20.30;;
26977;SDS011;56314;48.088;11.642;2022-12-18T16:11:29;51.88;;;21.38;;
26977;SDS011;56314;48.088;11.642;2022-12-18T16:16:52;64.28;;;23.67;;
26977;SDS011;56314;48.088;11.642;2022-12-18T16:19:19;59.00;;;22.63;;
26977;SDS011;56314;48.088;11.642;2022-12-18T16:21:46;58.85;;;22.77;;
26977;SDS011;56314;48.088;11.642;2022-12-18T16:24:14;52.63;;;22.42;;
26977;SDS011;56314;48.088;11.642;2022-12-18T16:26:41;60.22;;;22.55;;
26977;SDS011;56314;48.088;11.642;2022-12-18T16:29:07;54.92;;;22.58;;
26977;SDS011;56314;48.088;11.642;2022-12-18T16:31:33;62.80;;;22.77;;
26977;SDS011;56314;48.088;11.642;2022-12-18T16:34:17;62.75;;;24.00;;
26977;SDS011;56314;48.088;11.642;2022-12-18T16:36:50;59.33;;;22.42;;
26977;SDS011;56314;48.088;11.642;2022-12-18T16:39:16;54.13;;;21.55;;
26977;SDS011;56314;48.088;11.642;2022-12-18T16:41:42;61.50;;;22.25;;
26977;SDS011;56314;48.088;11.642;2022-12-18T16:44:08;59.45;;;23.17;;